Pennville, Indiana
Current Conditions -  °F | °C
As of 2:53 AM on Tuesday 27 Jan 2015 (Local Time) from KMIE Reporting Station
Overcast Overcast  
Wind Chill: 12°   Ceiling: 9500
Heat Index: 21°   Visibility: 9mi
Dew Point: 14°   Wind: 7mph
Humidity: 74%   Direction: 110°ESE
Pressure: 29.92"   Gusts: NA
Location:  40.49°N, 85.15°W
Report Text: KMIE 270753Z AUTO 11006KT 9SM SCT075 OVC095 M06/M10 A2992 RMK AO2 SNB26E36 SLP142 P0000 T10611100
Loading
Personal Weather Stations






























Interactive Weather Map New forecast layout! Learn more

10-Day Weather Forecast

Advertisements
Track Severe Weather on mobile